Time;durP1;ratioP1;P1;durP2;ratioP2;P2;SDS_P1;SDS_P2;PMS_P1;PMS_P2;Temp;Humidity;BMP_temperature;BMP_pressure;BME280_temperature;BME280_humidity;BME280_pressure;Samples;Min_cycle;Max_cycle;Signal;HPM_P1;HPM_P2
2022/12/27 00:03:54;;;;;;;2.92;0.70;;;7.50;99.90;;;;;;21069459;28;20039;-78
2022/12/27 00:13:58;;;;;;;;;;;7.30;99.90;;;;;;21108388;27;20447;-78
2022/12/27 00:23:59;;;;;;;1.90;0.80;;;7.20;99.90;;;;;;21255819;27;19938;-77
2022/12/27 00:34:03;;;;;;;2.45;0.57;;;7.10;99.90;;;;;;21239029;27;20512;-78
2022/12/27 00:44:03;;;;;;;2.90;0.93;;;7.10;99.90;;;;;;21137688;27;20565;-75
2022/12/27 00:54:06;;;;;;;4.60;1.10;;;6.90;99.90;;;;;;21253298;27;20038;-78
2022/12/27 01:04:07;;;;;;;1.23;0.93;;;6.80;99.90;;;;;;21252645;27;20034;-76
2022/12/27 01:14:09;;;;;;;5.88;0.85;;;6.70;99.90;;;;;;21251605;27;20378;-78
2022/12/27 01:24:10;;;;;;;4.65;1.13;;;6.70;99.90;;;;;;21232212;27;20045;-80
2022/12/27 01:34:11;;;;;;;6.73;0.93;;;6.70;99.90;;;;;;21249930;27;20461;-78
2022/12/27 01:44:51;;;;;;;6.35;1.13;;;6.60;99.90;;;;;;21208167;27;20293;-77
2022/12/27 01:54:53;;;;;;;2.60;1.17;;;6.60;99.90;;;;;;21162517;28;20059;-78
2022/12/27 02:04:54;;;;;;;9.63;1.00;;;6.60;99.90;;;;;;21143186;28;20047;-78
2022/12/27 02:14:55;;;;;;;5.32;0.90;;;6.60;99.90;;;;;;21126247;28;20023;-78
2022/12/27 02:25:17;;;;;;;8.82;1.27;;;6.70;99.90;;;;;;21160908;28;20031;-79
2022/12/27 02:35:27;;;;;;;4.88;0.90;;;6.70;99.90;;;;;;21142095;28;20516;-77
2022/12/27 03:07:24;;;;;;;1.98;0.80;;;6.60;99.90;;;;;;21140158;28;20485;-78
2022/12/27 03:17:40;;;;;;;3.38;0.80;;;6.60;99.90;;;;;;21076512;28;20064;-78
2022/12/27 03:27:43;;;;;;;8.43;1.60;;;6.50;99.90;;;;;;21073492;28;20036;-78
2022/12/27 03:38:02;;;;;;;7.40;1.42;;;6.40;99.90;;;;;;21073018;28;20043;-78
2022/12/27 03:48:05;;;;;;;2.30;0.80;;;6.30;99.90;;;;;;21072773;28;20024;-77
2022/12/27 03:58:06;;;;;;;2.55;1.00;;;6.30;99.90;;;;;;21063873;22;20145;-82
2022/12/27 04:39:04;;;;;;;2.72;0.88;;;6.00;99.90;;;;;;21016668;28;20039;-82
2022/12/27 05:20:20;;;;;;;;;;;6.00;99.90;;;;;;20951892;28;20070;-82
2022/12/27 05:30:21;;;;;;;8.40;1.73;;;6.10;99.90;;;;;;20943767;28;19916;-82
2022/12/27 05:40:23;;;;;;;10.47;2.50;;;6.10;99.90;;;;;;20943784;28;20294;-82
2022/12/27 05:50:23;;;;;;;2.42;1.10;;;5.90;99.90;;;;;;20855252;28;20063;-81
2022/12/27 06:00:24;;;;;;;5.77;0.90;;;5.70;99.90;;;;;;20846529;28;20029;-81
2022/12/27 06:10:25;;;;;;;2.40;0.77;;;5.80;99.90;;;;;;20852920;28;20330;-81
2022/12/27 06:20:26;;;;;;;;;;;5.80;99.90;;;;;;20925283;28;20079;-82
2022/12/27 06:30:26;;;;;;;18.83;8.10;;;5.80;99.90;;;;;;20937340;28;19908;-81
2022/12/27 06:40:27;;;;;;;;;;;5.80;99.90;;;;;;21017447;28;20028;-81
2022/12/27 06:50:28;;;;;;;5.10;1.10;;;5.80;99.90;;;;;;21015813;28;19951;-83
2022/12/27 07:00:29;;;;;;;5.43;1.47;;;5.80;99.90;;;;;;20995007;28;20037;-83
2022/12/27 07:10:30;;;;;;;2.27;1.57;;;5.70;99.90;;;;;;21005214;28;20329;-83
2022/12/27 07:20:30;;;;;;;;;;;5.60;99.90;;;;;;20987575;28;20068;-83
2022/12/27 07:30:31;;;;;;;5.47;2.70;;;5.60;99.90;;;;;;20985659;28;20401;-84
2022/12/27 07:40:34;;;;;;;;;;;5.70;99.90;;;;;;20994243;28;20064;-82
2022/12/27 07:50:35;;;;;;;9.05;4.05;;;5.80;99.90;;;;;;20955302;28;19909;-83
2022/12/27 08:00:36;;;;;;;11.98;6.05;;;6.00;99.90;;;;;;20928896;28;20040;-82
2022/12/27 08:10:37;;;;;;;9.90;3.90;;;6.10;99.90;;;;;;20929720;28;20033;-80
2022/12/27 08:20:37;;;;;;;13.30;3.27;;;6.10;99.90;;;;;;20946247;28;20302;-80
2022/12/27 08:30:40;;;;;;;5.97;2.33;;;6.20;99.90;;;;;;20947389;28;20036;-80
2022/12/27 08:40:43;;;;;;;7.40;3.40;;;6.20;99.90;;;;;;20907777;28;20043;-82
2022/12/27 08:50:44;;;;;;;4.97;2.47;;;6.10;99.90;;;;;;20941614;28;20446;-81
2022/12/27 09:00:44;;;;;;;;;;;6.10;99.90;;;;;;20925157;28;20063;-80
2022/12/27 09:10:45;;;;;;;5.80;2.83;;;6.20;99.90;;;;;;20934153;28;19913;-84
2022/12/27 09:20:46;;;;;;;;;;;6.40;99.90;;;;;;20901604;28;20033;-84
2022/12/27 09:30:46;;;;;;;7.50;2.70;;;6.70;99.90;;;;;;20913530;28;19909;-84
2022/12/27 09:40:55;;;;;;;7.80;1.23;;;7.20;99.90;;;;;;20918568;28;20033;-85
2022/12/27 09:51:02;;;;;;;3.15;0.77;;;7.40;99.90;;;;;;20930238;28;20363;-83
2022/12/27 10:01:20;;;;;;;7.78;1.30;;;8.00;99.90;;;;;;20858642;28;20414;-85
2022/12/27 10:11:37;;;;;;;7.53;1.30;;;7.40;99.90;;;;;;20855246;28;20036;-83
2022/12/27 10:21:57;;;;;;;6.15;0.90;;;7.70;99.90;;;;;;20874596;28;20495;-86
2022/12/27 10:31:58;;;;;;;5.70;1.60;;;8.10;99.90;;;;;;20839597;28;20487;-83
2022/12/27 10:42:33;;;;;;;8.17;1.03;;;8.50;99.90;;;;;;20883079;28;20033;-84
2022/12/27 10:52:34;;;;;;;1.20;0.75;;;8.80;99.90;;;;;;20906808;28;20029;-84
2022/12/27 11:02:48;;;;;;;3.35;1.45;;;9.40;99.90;;;;;;20921990;28;20052;-83
2022/12/27 11:12:55;;;;;;;6.22;0.73;;;9.80;99.90;;;;;;20905809;28;20039;-82
2022/12/27 11:22:56;;;;;;;2.67;0.90;;;9.40;99.90;;;;;;20905066;28;20063;-84
2022/12/27 11:33:02;;;;;;;4.33;0.87;;;8.10;99.90;;;;;;20905967;28;20037;-82
2022/12/27 11:43:11;;;;;;;5.50;0.82;;;8.20;99.90;;;;;;20920650;28;20036;-84
2022/12/27 11:53:21;;;;;;;3.30;1.05;;;8.40;99.90;;;;;;20951480;28;20039;-82
2022/12/27 12:03:55;;;;;;;4.07;0.70;;;8.40;99.90;;;;;;20924531;28;20032;-80
2022/12/27 12:14:17;;;;;;;3.05;0.60;;;8.30;99.90;;;;;;20893969;28;20041;-82
2022/12/27 12:24:37;;;;;;;5.95;0.77;;;9.10;99.90;;;;;;20888150;28;20629;-81
2022/12/27 12:35:15;;;;;;;3.63;0.70;;;9.10;99.90;;;;;;20917862;28;20098;-81
2022/12/27 12:45:28;;;;;;;6.70;1.05;;;8.60;99.90;;;;;;20967243;28;20028;-82
2022/12/27 12:56:00;;;;;;;2.38;0.82;;;8.50;99.90;;;;;;20902432;28;20036;-80
2022/12/27 13:06:22;;;;;;;5.37;1.10;;;8.30;99.90;;;;;;20849033;28;20076;-82
2022/12/27 13:16:26;;;;;;;8.77;1.20;;;8.30;99.90;;;;;;20887245;28;20506;-81
2022/12/27 13:26:29;;;;;;;4.85;1.05;;;8.20;99.90;;;;;;20936699;28;20037;-82
2022/12/27 13:36:45;;;;;;;7.97;1.20;;;8.10;99.90;;;;;;20935719;28;20036;-82
2022/12/27 13:47:14;;;;;;;3.80;1.50;;;7.90;99.90;;;;;;20946358;28;20068;-82
2022/12/27 13:57:29;;;;;;;20.98;4.97;;;7.90;99.90;;;;;;20897313;28;20591;-81
2022/12/27 14:07:36;;;;;;;8.70;3.70;;;7.80;99.90;;;;;;20950341;28;20040;-82
2022/12/27 14:17:37;;;;;;;3.95;1.15;;;7.90;99.90;;;;;;21003785;28;20028;-80
2022/12/27 14:27:57;;;;;;;5.90;1.03;;;8.00;99.90;;;;;;20973322;28;20094;-83
2022/12/27 14:38:22;;;;;;;6.15;2.78;;;8.00;99.90;;;;;;21019896;28;20039;-80
2022/12/27 14:48:47;;;;;;;6.88;2.42;;;7.90;99.90;;;;;;20979105;28;20048;-80
2022/12/27 14:59:19;;;;;;;6.32;1.83;;;7.90;99.90;;;;;;20926645;28;20503;-81
2022/12/27 15:09:23;;;;;;;2.73;1.37;;;7.80;99.90;;;;;;20919588;28;20530;-81
2022/12/27 15:19:48;;;;;;;6.88;2.42;;;7.80;99.90;;;;;;20935005;28;20140;-84
2022/12/27 15:30:37;;;;;;;13.15;4.20;;;7.50;99.90;;;;;;20918281;28;20040;-84
2022/12/27 15:40:43;;;;;;;11.48;3.60;;;7.50;99.90;;;;;;20822215;28;20045;-82
2022/12/27 15:50:50;;;;;;;10.77;1.60;;;7.30;99.90;;;;;;20913012;28;20491;-84
2022/12/27 16:01:16;;;;;;;174.02;65.88;;;6.80;99.90;;;;;;20954500;22;20044;-76
2022/12/27 16:11:17;;;;;;;242.98;112.80;;;6.60;99.90;;;;;;21001168;28;20035;-76
2022/12/27 16:21:22;;;;;;;9.90;4.95;;;6.70;99.90;;;;;;21002894;28;20053;-77
2022/12/27 16:31:31;;;;;;;6.95;1.50;;;6.80;99.90;;;;;;21049431;28;20028;-77
2022/12/27 16:41:53;;;;;;;8.85;2.10;;;6.60;99.90;;;;;;21051335;28;20025;-77
2022/12/27 16:52:17;;;;;;;9.10;3.65;;;6.20;99.90;;;;;;20972050;28;20036;-75
2022/12/27 17:02:38;;;;;;;6.97;3.65;;;6.00;99.90;;;;;;20981381;28;20029;-75
2022/12/27 17:12:41;;;;;;;6.90;3.53;;;5.80;99.90;;;;;;20916324;28;20044;-77
2022/12/27 17:22:42;;;;;;;11.02;4.35;;;5.40;99.90;;;;;;20983160;28;20487;-76
2022/12/27 17:33:02;;;;;;;;;;;5.00;99.90;;;;;;21057918;28;20032;-77
2022/12/27 18:04:23;;;;;;;10.00;3.97;;;4.40;99.90;;;;;;20994737;28;20113;-77
2022/12/27 18:14:24;;;;;;;12.90;4.93;;;4.00;99.90;;;;;;20993881;28;20504;-75
2022/12/27 18:24:29;;;;;;;15.77;6.57;;;3.80;99.90;;;;;;20993018;28;20099;-75
2022/12/27 18:34:51;;;;;;;16.80;6.15;;;3.80;99.90;;;;;;20951858;28;20097;-76
2022/12/27 18:44:54;;;;;;;;;;;3.90;99.90;;;;;;20930021;28;20033;-76
2022/12/27 18:55:05;;;;;;;10.57;4.90;;;3.80;99.90;;;;;;20908122;28;20370;-77
2022/12/27 19:05:18;;;;;;;16.50;4.68;;;3.90;99.90;;;;;;20948888;28;20083;-76
2022/12/27 19:15:26;;;;;;;10.00;5.70;;;3.80;99.90;;;;;;21050764;28;20024;-77
2022/12/27 19:25:31;;;;;;;8.40;4.72;;;3.50;99.90;;;;;;21055850;28;20036;-77
2022/12/27 19:35:32;;;;;;;11.55;5.82;;;3.30;99.90;;;;;;21009240;28;20029;-77
2022/12/27 19:45:33;;;;;;;18.58;6.25;;;3.20;99.90;;;;;;21002044;28;20028;-76
2022/12/27 19:55:35;;;;;;;17.00;5.90;;;2.90;99.90;;;;;;21005566;28;20464;-78
2022/12/27 20:05:35;;;;;;;15.18;5.80;;;2.60;99.90;;;;;;21003661;28;20040;-78
2022/12/27 20:15:36;;;;;;;8.90;4.10;;;2.50;99.90;;;;;;21003183;28;20457;-76
2022/12/27 20:25:40;;;;;;;14.52;8.70;;;2.20;99.90;;;;;;21001009;28;20059;-76
2022/12/27 20:35:41;;;;;;;14.27;7.75;;;2.10;99.90;;;;;;20999669;28;20063;-76
2022/12/27 20:45:50;;;;;;;12.43;6.43;;;2.20;99.90;;;;;;20982994;28;20509;-77
2022/12/27 20:56:02;;;;;;;8.85;3.95;;;2.30;99.90;;;;;;20981557;28;20028;-76
2022/12/27 21:06:09;;;;;;;6.25;3.08;;;2.20;99.90;;;;;;20981426;28;20044;-76
2022/12/27 21:16:24;;;;;;;9.60;2.80;;;2.30;99.90;;;;;;20998916;28;20028;-76
2022/12/27 21:26:28;;;;;;;4.97;2.58;;;2.40;99.90;;;;;;20995408;28;20024;-75
2022/12/27 21:36:31;;;;;;;12.65;3.97;;;2.30;99.90;;;;;;21026511;28;20462;-77
2022/12/27 21:46:37;;;;;;;7.88;3.28;;;2.50;99.90;;;;;;20994435;28;20041;-76
2022/12/27 21:56:39;;;;;;;8.43;3.30;;;2.60;99.90;;;;;;21034070;22;20052;-80
2022/12/27 22:06:40;;;;;;;8.98;3.30;;;2.70;99.90;;;;;;21075425;28;20054;-80
2022/12/27 22:16:41;;;;;;;6.95;3.35;;;2.80;99.90;;;;;;21104685;28;20027;-81
2022/12/27 22:26:42;;;;;;;11.73;6.50;;;2.90;99.90;;;;;;21169745;28;20044;-80
2022/12/27 22:36:45;;;;;;;5.57;2.92;;;2.90;99.90;;;;;;21130775;28;20043;-81
2022/12/27 22:46:46;;;;;;;4.90;2.53;;;2.80;99.90;;;;;;21104601;28;20028;-82
2022/12/27 22:56:47;;;;;;;5.35;2.97;;;2.60;99.90;;;;;;21108140;28;20102;-81
2022/12/27 23:06:48;;;;;;;7.75;2.72;;;2.40;99.90;;;;;;21092867;28;20032;-82
2022/12/27 23:16:49;;;;;;;5.05;2.45;;;2.60;99.90;;;;;;21101390;28;20032;-82
2022/12/27 23:26:50;;;;;;;6.70;2.40;;;2.40;99.90;;;;;;21118332;28;20024;-81
2022/12/27 23:36:50;;;;;;;4.93;2.10;;;2.20;99.90;;;;;;21104828;28;20028;-82
2022/12/27 23:46:51;;;;;;;3.08;2.00;;;2.10;99.90;;;;;;21119902;28;20066;-81
2022/12/27 23:56:52;;;;;;;4.63;1.85;;;1.80;99.90;;;;;;21121907;28;20056;-82
